createdAt,value
2023-04-18T00:01:06.457Z,81.02
2023-04-18T00:03:29.859Z,82.83
2023-04-18T00:05:51.881Z,84.65
2023-04-18T00:08:14.201Z,85.73
2023-04-18T00:10:35.623Z,88.27
2023-04-18T00:12:58.349Z,87.68
2023-04-18T00:15:19.806Z,90.53
2023-04-18T00:17:41.284Z,89.72
2023-04-18T00:20:06.936Z,87.36
2023-04-18T00:22:28.413Z,85.42
2023-04-18T00:24:50.639Z,84.63
2023-04-18T00:27:12.091Z,83.52
2023-04-18T00:29:33.544Z,82.29
2023-04-18T00:31:55.032Z,81.67
2023-04-18T00:34:16.557Z,80.36
2023-04-18T00:36:38.068Z,80.58
2023-04-18T00:38:59.530Z,80.68
2023-04-18T00:41:22.261Z,80.64
2023-04-18T00:43:43.717Z,82.72
2023-04-18T00:46:05.479Z,81.79
2023-04-18T00:48:27.471Z,80.78
2023-04-18T00:50:49.008Z,80.99
2023-04-18T00:53:11.170Z,80.88
2023-04-18T00:55:32.961Z,81.86
2023-04-18T00:57:54.497Z,82.41
2023-04-18T01:00:16.196Z,81.35
2023-04-18T01:02:39.673Z,80.90
2023-04-18T01:05:02.343Z,81.44
2023-04-18T01:07:24.884Z,81.65
2023-04-18T01:09:47.227Z,81.17
2023-04-18T01:12:08.667Z,82.00
2023-04-18T01:14:30.164Z,83.26
2023-04-18T01:16:51.648Z,82.23
2023-04-18T01:19:17.475Z,82.17
2023-04-18T01:21:43.731Z,83.21
2023-04-18T01:24:18.044Z,83.18
2023-04-18T01:26:40.129Z,83.12
2023-04-18T01:29:01.658Z,82.74
2023-04-18T01:31:23.271Z,82.77
2023-04-18T01:33:44.774Z,85.10
2023-04-18T01:36:06.365Z,85.25
2023-04-18T01:38:27.911Z,85.49
2023-04-18T01:40:49.489Z,84.58
2023-04-18T01:43:10.942Z,82.99
2023-04-18T01:45:32.535Z,81.78
2023-04-18T01:47:53.988Z,82.41
2023-04-18T01:50:15.565Z,83.68
2023-04-18T01:52:37.006Z,82.42
2023-04-18T01:54:58.687Z,80.21
2023-04-18T01:57:20.118Z,82.03
2023-04-18T01:59:41.557Z,81.12
2023-04-18T02:02:03.071Z,81.16
2023-04-18T02:04:24.720Z,82.43
2023-04-18T02:06:46.171Z,82.04
2023-04-18T02:09:07.634Z,81.20
2023-04-18T02:11:29.986Z,80.53
2023-04-18T02:13:52.255Z,80.17
2023-04-18T02:16:14.001Z,79.48
2023-04-18T02:18:35.503Z,79.00
2023-04-18T02:20:56.981Z,78.16
2023-04-18T02:23:19.165Z,79.38
2023-04-18T02:25:40.708Z,80.18
2023-04-18T02:28:02.368Z,79.20
2023-04-18T02:30:25.449Z,78.98
2023-04-18T02:32:47.140Z,80.41
2023-04-18T02:35:08.838Z,80.52
2023-04-18T02:37:30.337Z,81.75
2023-04-18T02:39:51.795Z,80.32
2023-04-18T02:42:13.244Z,80.00
2023-04-18T02:44:34.720Z,79.50
2023-04-18T02:46:56.152Z,79.65
2023-04-18T02:49:17.594Z,79.96
2023-04-18T02:51:39.066Z,80.80
2023-04-18T02:54:00.594Z,81.22
2023-04-18T02:56:22.460Z,80.64
2023-04-18T02:58:43.922Z,80.48
2023-04-18T03:01:05.609Z,80.34
2023-04-18T03:03:27.109Z,80.50
2023-04-18T03:05:48.709Z,80.31
2023-04-18T03:08:10.165Z,82.17
2023-04-18T03:10:31.650Z,81.19
2023-04-18T03:12:53.130Z,81.55
2023-04-18T03:15:14.609Z,81.38
2023-04-18T03:17:36.689Z,82.59
2023-04-18T03:19:58.205Z,83.08
2023-04-18T03:22:19.873Z,82.89
2023-04-18T03:24:41.417Z,83.34
2023-04-18T03:27:02.973Z,82.54
2023-04-18T03:29:24.488Z,81.88
2023-04-18T03:31:46.096Z,81.30
2023-04-18T03:34:07.611Z,81.32
2023-04-18T03:36:29.157Z,83.81
2023-04-18T03:38:50.795Z,83.69
2023-04-18T03:41:12.256Z,84.05
2023-04-18T03:43:33.721Z,85.17
2023-04-18T03:45:55.246Z,84.98
2023-04-18T03:48:16.755Z,84.72
2023-04-18T03:50:38.189Z,85.31
2023-04-18T03:52:59.643Z,86.11
2023-04-18T03:55:21.846Z,84.42
2023-04-18T03:57:43.309Z,85.30
2023-04-18T04:00:07.917Z,84.31
2023-04-18T04:02:29.497Z,85.89
2023-04-18T04:04:51.479Z,85.82
2023-04-18T04:07:13.097Z,84.89
2023-04-18T04:09:34.524Z,84.97
2023-04-18T04:11:55.958Z,86.10
2023-04-18T04:14:17.454Z,87.55
2023-04-18T04:16:39.039Z,87.66
2023-04-18T04:19:00.482Z,87.75
2023-04-18T04:21:21.908Z,85.37
2023-04-18T04:23:43.578Z,86.33
2023-04-18T04:26:05.129Z,87.88
2023-04-18T04:28:26.647Z,87.09
2023-04-18T04:30:51.405Z,87.25
2023-04-18T04:33:12.879Z,87.93
2023-04-18T04:35:36.705Z,89.02
2023-04-18T04:37:58.943Z,89.82
2023-04-18T04:40:20.533Z,88.31
2023-04-18T04:42:43.407Z,88.72
2023-04-18T04:45:05.729Z,88.57
2023-04-18T04:47:27.294Z,87.14
2023-04-18T04:49:48.770Z,87.23
2023-04-18T04:52:10.225Z,87.81
2023-04-18T04:54:31.652Z,88.03
2023-04-18T04:56:53.130Z,88.87
2023-04-18T04:59:14.886Z,88.08
2023-04-18T05:01:36.410Z,88.06
2023-04-18T05:03:58.050Z,89.17
2023-04-18T05:06:20.941Z,88.85
2023-04-18T05:08:42.498Z,89.31
2023-04-18T05:11:03.951Z,88.73
2023-04-18T05:13:25.648Z,86.95
2023-04-18T05:15:47.342Z,85.86
2023-04-18T05:18:09.000Z,86.19
2023-04-18T05:20:30.530Z,85.92
2023-04-18T05:22:52.056Z,85.76
2023-04-18T05:25:13.538Z,84.90
2023-04-18T05:27:35.019Z,84.39
2023-04-18T05:29:56.483Z,84.87
2023-04-18T05:32:17.987Z,84.81
2023-04-18T05:34:39.449Z,83.68
2023-04-18T05:37:01.024Z,82.83
2023-04-18T05:39:22.468Z,83.39
2023-04-18T05:41:43.928Z,83.46
2023-04-18T05:44:06.023Z,83.49
2023-04-18T05:46:27.577Z,85.04
2023-04-18T05:48:49.032Z,84.88
2023-04-18T05:51:11.604Z,84.60
2023-04-18T05:53:33.243Z,85.77
2023-04-18T05:55:55.165Z,87.04
2023-04-18T05:58:16.626Z,87.17
2023-04-18T06:00:38.085Z,88.74
2023-04-18T06:02:59.736Z,87.97
2023-04-18T06:05:21.583Z,87.54
2023-04-18T06:07:43.222Z,86.63
2023-04-18T06:10:09.245Z,85.32
2023-04-18T06:12:30.704Z,84.04
2023-04-18T06:14:52.182Z,82.99
2023-04-18T06:17:14.000Z,83.60
2023-04-18T06:19:35.522Z,83.41
2023-04-18T06:21:56.962Z,82.75
2023-04-18T06:24:18.441Z,81.71
2023-04-18T06:26:39.977Z,82.54
2023-04-18T06:29:01.575Z,81.54
2023-04-18T06:31:23.152Z,81.47
2023-04-18T06:33:44.612Z,81.44
2023-04-18T06:36:07.220Z,82.84
2023-04-18T06:38:28.831Z,82.17
2023-04-18T06:40:50.261Z,82.71
2023-04-18T06:43:11.761Z,81.92
2023-04-18T06:45:33.350Z,81.15
2023-04-18T06:47:54.910Z,82.50
2023-04-18T06:50:16.490Z,82.90
2023-04-18T06:52:40.704Z,82.35
2023-04-18T06:55:02.230Z,81.52
2023-04-18T06:57:23.741Z,80.96
2023-04-18T06:59:45.168Z,79.81
2023-04-18T07:02:08.277Z,80.13
2023-04-18T07:04:29.908Z,79.29
2023-04-18T07:06:51.810Z,79.24
2023-04-18T07:09:13.291Z,78.80
2023-04-18T07:11:34.815Z,78.66
2023-04-18T07:13:56.264Z,77.66
2023-04-18T07:16:17.787Z,76.73
2023-04-18T07:18:39.260Z,76.58
2023-04-18T07:21:00.832Z,76.33
2023-04-18T07:23:22.276Z,76.61
2023-04-18T07:25:43.790Z,73.98
2023-04-18T07:28:05.449Z,73.83
2023-04-18T07:30:26.978Z,73.97
2023-04-18T07:32:48.738Z,72.89
2023-04-18T07:35:10.575Z,69.48
2023-04-18T07:37:32.634Z,67.26
2023-04-18T07:39:54.067Z,65.80
2023-04-18T07:42:15.522Z,65.70
2023-04-18T07:44:37.003Z,64.13
2023-04-18T07:46:58.538Z,63.21
2023-04-18T07:49:19.985Z,61.57
2023-04-18T07:51:41.437Z,59.29
2023-04-18T07:54:03.011Z,58.73
2023-04-18T07:56:24.968Z,59.01
2023-04-18T07:58:46.407Z,57.61
2023-04-18T08:01:08.986Z,57.15
2023-04-18T08:03:30.636Z,57.03
2023-04-18T08:05:52.401Z,56.14
2023-04-18T08:08:13.984Z,55.83
2023-04-18T08:10:35.944Z,54.51
2023-04-18T08:12:57.452Z,55.66
2023-04-18T08:15:18.978Z,55.57
2023-04-18T08:17:42.658Z,55.49
2023-04-18T08:20:07.237Z,53.76
2023-04-18T08:22:28.842Z,53.47
2023-04-18T08:25:03.842Z,52.52
2023-04-18T08:27:26.848Z,52.83
2023-04-18T08:29:48.335Z,52.85
2023-04-18T08:32:09.799Z,53.48
2023-04-18T08:34:33.829Z,54.50
2023-04-18T08:36:55.542Z,56.29
2023-04-18T08:39:17.355Z,55.05
2023-04-18T08:41:42.786Z,55.37
2023-04-18T08:44:04.391Z,54.61
2023-04-18T08:46:26.416Z,55.12
2023-04-18T08:48:50.004Z,55.93
2023-04-18T08:51:11.505Z,55.55
2023-04-18T08:53:33.966Z,56.86
2023-04-18T08:55:57.355Z,56.32
2023-04-18T08:58:27.407Z,57.29
2023-04-18T09:00:53.616Z,56.67
2023-04-18T09:03:15.620Z,57.00
2023-04-18T09:05:37.203Z,57.55
2023-04-18T09:07:58.658Z,58.72
2023-04-18T09:10:32.582Z,60.08
2023-04-18T09:12:54.459Z,58.92
2023-04-18T09:15:17.471Z,58.20
2023-04-18T09:17:46.091Z,58.06
2023-04-18T09:20:10.726Z,57.45
2023-04-18T09:22:47.906Z,58.16
2023-04-18T09:25:09.642Z,59.01
2023-04-18T09:27:34.694Z,60.05
2023-04-18T09:29:58.032Z,60.38
2023-04-18T09:32:29.137Z,59.64
2023-04-18T09:34:59.749Z,58.88
2023-04-18T09:37:22.096Z,58.85
2023-04-18T09:39:44.706Z,60.94
2023-04-18T09:42:06.378Z,58.26
2023-04-18T09:44:28.160Z,58.54
2023-04-18T09:46:49.760Z,57.96
2023-04-18T09:49:11.370Z,56.72
2023-04-18T09:51:34.111Z,56.63
2023-04-18T09:53:55.824Z,54.85
2023-04-18T09:56:25.897Z,55.94
2023-04-18T09:58:51.212Z,56.26
2023-04-18T10:01:13.483Z,56.29
2023-04-18T10:03:47.231Z,57.13
2023-04-18T10:06:11.283Z,57.59
2023-04-18T10:08:33.111Z,57.73
2023-04-18T10:10:55.996Z,57.77
2023-04-18T10:13:19.058Z,58.20
2023-04-18T10:15:42.394Z,59.03
2023-04-18T10:18:16.553Z,60.14
2023-04-18T10:20:41.264Z,59.85
2023-04-18T10:23:31.578Z,59.86
2023-04-18T10:25:53.101Z,58.59
2023-04-18T10:28:15.031Z,58.73
2023-04-18T10:30:42.584Z,56.23
2023-04-18T10:33:30.324Z,57.93
2023-04-18T10:36:20.630Z,55.37
2023-04-18T10:38:46.965Z,54.59
2023-04-18T10:41:24.968Z,55.76
2023-04-18T10:44:18.779Z,56.98
2023-04-18T10:46:41.495Z,56.97
2023-04-18T10:49:23.388Z,55.69
2023-04-18T10:51:49.469Z,55.84
2023-04-18T10:54:13.751Z,54.93
2023-04-18T10:56:36.002Z,55.15
2023-04-18T10:59:02.068Z,55.47
2023-04-18T11:01:31.206Z,55.83
2023-04-18T11:03:57.204Z,55.58
2023-04-18T11:06:18.838Z,55.60
2023-04-18T11:08:40.677Z,54.12
2023-04-18T11:11:04.204Z,54.79
2023-04-18T11:13:25.761Z,55.10
2023-04-18T11:15:47.236Z,56.49
2023-04-18T11:18:09.341Z,54.71
2023-04-18T11:20:38.865Z,53.77
2023-04-18T11:23:00.826Z,53.24
2023-04-18T11:25:29.060Z,52.63
2023-04-18T11:27:55.656Z,52.76
2023-04-18T11:30:17.507Z,53.58
2023-04-18T11:32:39.058Z,54.01
2023-04-18T11:35:00.613Z,55.75
2023-04-18T11:37:22.378Z,55.68
2023-04-18T11:39:44.657Z,55.13
2023-04-18T11:42:06.181Z,53.30
2023-04-18T11:44:27.630Z,52.47
2023-04-18T11:46:50.279Z,51.67
2023-04-18T11:49:30.342Z,51.91
2023-04-18T11:51:51.822Z,51.83
2023-04-18T11:54:38.975Z,53.84
2023-04-18T11:57:00.508Z,55.20
2023-04-18T11:59:22.595Z,54.88
2023-04-18T12:01:44.028Z,54.38
2023-04-18T12:04:08.009Z,55.13
2023-04-18T12:06:49.344Z,55.83
2023-04-18T12:09:14.234Z,56.10
2023-04-18T12:11:35.737Z,56.89
2023-04-18T12:13:57.219Z,58.00
2023-04-18T12:16:18.688Z,59.00
2023-04-18T12:18:41.930Z,59.98
2023-04-18T12:21:05.827Z,60.78
2023-04-18T12:23:40.498Z,61.18
2023-04-18T12:26:18.248Z,62.37
2023-04-18T12:28:39.913Z,63.56
2023-04-18T12:31:02.186Z,63.88
2023-04-18T12:33:23.894Z,64.84
2023-04-18T12:35:46.406Z,65.32
2023-04-18T12:38:08.730Z,63.36
2023-04-18T12:40:30.332Z,64.15
2023-04-18T12:42:53.001Z,62.61
2023-04-18T12:45:15.935Z,62.33
2023-04-18T12:47:42.170Z,60.22
2023-04-18T12:50:03.949Z,59.79
2023-04-18T12:52:25.374Z,58.93
2023-04-18T12:54:46.823Z,57.73
2023-04-18T12:57:08.284Z,56.96
2023-04-18T12:59:30.250Z,57.34
2023-04-18T13:01:51.841Z,57.78
2023-04-18T13:04:13.591Z,58.31
2023-04-18T13:06:35.638Z,57.94
2023-04-18T13:08:57.122Z,57.87
2023-04-18T13:11:18.566Z,58.01
2023-04-18T13:13:40.059Z,60.37
2023-04-18T13:16:01.585Z,60.62
2023-04-18T13:18:23.168Z,59.95
2023-04-18T13:20:44.578Z,61.33
2023-04-18T13:23:06.019Z,60.89
2023-04-18T13:25:27.504Z,61.04
2023-04-18T13:27:50.366Z,60.75
2023-04-18T13:30:12.206Z,62.35
2023-04-18T13:32:34.514Z,61.84
2023-04-18T13:34:56.394Z,62.73
2023-04-18T13:37:17.921Z,62.91
2023-04-18T13:39:39.474Z,62.95
2023-04-18T13:42:03.312Z,63.67
2023-04-18T13:44:25.237Z,64.29
2023-04-18T13:46:46.696Z,65.34
2023-04-18T13:49:08.142Z,64.95
2023-04-18T13:51:29.616Z,64.54
2023-04-18T13:53:51.734Z,65.61
2023-04-18T13:56:13.239Z,66.23
2023-04-18T13:58:34.738Z,66.14
2023-04-18T14:00:56.544Z,66.32
2023-04-18T14:03:18.174Z,67.42
2023-04-18T14:05:39.747Z,67.31
2023-04-18T14:08:03.907Z,68.12
2023-04-18T14:10:25.507Z,68.71
2023-04-18T14:12:46.973Z,67.33
2023-04-18T14:15:09.368Z,68.46
2023-04-18T14:17:31.124Z,69.19
2023-04-18T14:19:52.641Z,68.13
2023-04-18T14:22:14.082Z,67.29
2023-04-18T14:24:38.362Z,67.55
2023-04-18T14:26:59.807Z,67.70
2023-04-18T14:29:21.279Z,69.29
2023-04-18T14:31:42.865Z,70.83
2023-04-18T14:34:04.488Z,70.56
2023-04-18T14:36:27.225Z,69.79
2023-04-18T14:38:49.325Z,70.75
2023-04-18T14:41:11.184Z,70.33
2023-04-18T14:43:32.642Z,68.78
2023-04-18T14:45:54.115Z,68.50
2023-04-18T14:48:16.125Z,67.28
2023-04-18T14:50:38.656Z,65.16
2023-04-18T14:53:00.210Z,65.40
2023-04-18T14:55:21.662Z,62.66
2023-04-18T14:57:43.103Z,63.29
2023-04-18T15:00:08.258Z,61.62
2023-04-18T15:02:29.931Z,61.55
2023-04-18T15:04:53.244Z,62.75
2023-04-18T15:07:15.493Z,63.37
2023-04-18T15:09:37.665Z,65.24
2023-04-18T15:12:00.163Z,66.51
2023-04-18T15:14:21.653Z,66.99
2023-04-18T15:16:43.169Z,69.41
2023-04-18T15:19:04.655Z,69.15
2023-04-18T15:21:26.269Z,69.10
2023-04-18T15:23:47.699Z,70.42
2023-04-18T15:26:09.274Z,70.46
2023-04-18T15:28:31.122Z,70.18
2023-04-18T15:30:52.661Z,71.61
2023-04-18T15:33:14.295Z,72.34
2023-04-18T15:35:36.141Z,72.04
2023-04-18T15:37:57.713Z,73.20
2023-04-18T15:40:19.513Z,72.46
2023-04-18T15:42:41.086Z,71.49
2023-04-18T15:45:04.426Z,70.28
2023-04-18T15:47:26.110Z,69.16
2023-04-18T15:49:47.630Z,70.68
2023-04-18T15:52:09.165Z,71.34
2023-04-18T15:54:30.820Z,70.43
2023-04-18T15:56:52.302Z,71.16
2023-04-18T15:59:13.905Z,69.48
2023-04-18T16:01:35.811Z,68.65
2023-04-18T16:03:57.433Z,69.48
2023-04-18T16:06:19.090Z,70.08
2023-04-18T16:08:40.850Z,69.74
2023-04-18T16:11:02.467Z,69.29
2023-04-18T16:13:23.953Z,69.96
2023-04-18T16:15:46.037Z,70.67
2023-04-18T16:18:08.350Z,70.03
2023-04-18T16:20:29.947Z,70.05
2023-04-18T16:22:51.375Z,69.97
2023-04-18T16:25:12.901Z,70.71
2023-04-18T16:27:34.396Z,70.91
2023-04-18T16:29:55.892Z,72.54
2023-04-18T16:32:17.345Z,73.15
2023-04-18T16:34:38.772Z,72.87
2023-04-18T16:37:00.896Z,72.84
2023-04-18T16:39:22.418Z,71.95
2023-04-18T16:41:44.129Z,73.06
2023-04-18T16:44:05.585Z,73.64
2023-04-18T16:46:31.319Z,73.04
2023-04-18T16:48:52.821Z,76.35
2023-04-18T16:51:14.490Z,77.59
2023-04-18T16:53:36.123Z,78.69
2023-04-18T16:55:57.681Z,79.11
2023-04-18T16:58:20.189Z,80.30
2023-04-18T17:00:42.141Z,80.38
2023-04-18T17:03:03.844Z,82.17
2023-04-18T17:05:26.030Z,81.87
2023-04-18T17:07:49.758Z,82.65
2023-04-18T17:10:11.670Z,82.20
2023-04-18T17:12:33.161Z,83.08
2023-04-18T17:14:54.605Z,83.83
2023-04-18T17:17:16.060Z,84.86
2023-04-18T17:19:37.559Z,86.53
2023-04-18T17:21:58.985Z,87.11
2023-04-18T17:24:22.482Z,88.82
2023-04-18T17:26:44.218Z,89.37
2023-04-18T17:29:05.701Z,89.72
2023-04-18T17:31:27.347Z,89.15
2023-04-18T17:33:51.782Z,89.02
2023-04-18T17:36:13.416Z,90.23
2023-04-18T17:38:34.992Z,90.68
2023-04-18T17:41:00.822Z,91.51
2023-04-18T17:43:22.399Z,90.93
2023-04-18T17:45:44.162Z,90.48
2023-04-18T17:48:06.105Z,91.15
2023-04-18T17:50:27.625Z,90.57
2023-04-18T17:52:49.714Z,91.86
2023-04-18T17:55:11.344Z,92.48
2023-04-18T17:57:33.641Z,93.19
2023-04-18T17:59:55.131Z,92.77
2023-04-18T18:02:16.714Z,93.92
2023-04-18T18:04:41.554Z,91.89
2023-04-18T18:07:03.048Z,90.34
2023-04-18T18:09:24.613Z,92.62
2023-04-18T18:11:46.051Z,92.97
2023-04-18T18:14:07.646Z,91.14
2023-04-18T18:16:29.085Z,90.70
2023-04-18T18:18:51.107Z,90.76
2023-04-18T18:21:12.598Z,91.34
2023-04-18T18:23:34.069Z,90.20
2023-04-18T18:25:55.782Z,90.82
2023-04-18T18:28:17.909Z,91.68
2023-04-18T18:30:39.412Z,90.63
2023-04-18T18:33:01.752Z,91.11
2023-04-18T18:35:23.240Z,91.20
2023-04-18T18:37:44.699Z,90.24
2023-04-18T18:40:07.430Z,89.66
2023-04-18T18:42:28.917Z,89.40
2023-04-18T18:44:50.574Z,91.53
2023-04-18T18:47:12.023Z,90.09
2023-04-18T18:49:33.525Z,89.90
2023-04-18T18:51:55.027Z,90.01
2023-04-18T18:54:16.480Z,91.29
2023-04-18T18:56:39.796Z,92.20
2023-04-18T18:59:01.240Z,92.68
2023-04-18T19:01:23.154Z,93.83
2023-04-18T19:03:44.856Z,96.36
2023-04-18T19:06:07.355Z,97.71
2023-04-18T19:08:28.813Z,97.24
2023-04-18T19:10:50.707Z,97.43
2023-04-18T19:13:12.150Z,99.03
2023-04-18T19:15:33.588Z,97.04
2023-04-18T19:17:55.965Z,96.15
2023-04-18T19:20:17.891Z,95.02
2023-04-18T19:22:39.389Z,94.72
2023-04-18T19:25:00.944Z,94.37
2023-04-18T19:27:22.992Z,93.54
2023-04-18T19:29:44.668Z,93.39
2023-04-18T19:32:06.479Z,92.95
2023-04-18T19:34:27.967Z,93.35
2023-04-18T19:36:49.406Z,93.41
2023-04-18T19:39:11.032Z,93.63
2023-04-18T19:41:32.456Z,92.34
2023-04-18T19:43:53.935Z,90.40
2023-04-18T19:46:15.470Z,91.69
2023-04-18T19:48:37.000Z,93.33
2023-04-18T19:50:58.429Z,94.94
2023-04-18T19:53:20.566Z,95.58
2023-04-18T19:55:44.340Z,96.33
2023-04-18T19:58:05.884Z,94.63
2023-04-18T20:00:28.267Z,94.07
2023-04-18T20:02:50.030Z,95.51
2023-04-18T20:05:12.920Z,95.94
2023-04-18T20:07:35.515Z,97.15
2023-04-18T20:09:57.019Z,96.23
2023-04-18T20:12:18.583Z,96.98
2023-04-18T20:14:40.046Z,97.58
2023-04-18T20:17:01.502Z,96.27
2023-04-18T20:19:26.853Z,95.85
2023-04-18T20:21:48.370Z,94.40
2023-04-18T20:24:09.863Z,94.55
2023-04-18T20:26:31.372Z,93.50
2023-04-18T20:28:52.854Z,94.04
2023-04-18T20:31:14.322Z,93.73
2023-04-18T20:33:36.543Z,94.36
2023-04-18T20:35:58.812Z,93.55
2023-04-18T20:38:25.989Z,93.34
2023-04-18T20:40:48.941Z,93.82
2023-04-18T20:43:10.752Z,94.79
2023-04-18T20:45:34.740Z,94.04
2023-04-18T20:47:56.847Z,95.46
2023-04-18T20:50:20.401Z,95.95
2023-04-18T20:52:43.001Z,95.24
2023-04-18T20:55:04.713Z,94.14
2023-04-18T20:57:26.273Z,94.92
2023-04-18T20:59:48.352Z,95.33
2023-04-18T21:02:10.011Z,96.65
2023-04-18T21:04:31.707Z,97.20
2023-04-18T21:06:53.287Z,96.68
2023-04-18T21:09:15.100Z,94.94
2023-04-18T21:11:36.730Z,95.75
2023-04-18T21:13:58.204Z,96.00
2023-04-18T21:16:19.879Z,94.88
2023-04-18T21:18:41.328Z,94.67
2023-04-18T21:21:02.914Z,96.38
2023-04-18T21:23:24.593Z,95.66
2023-04-18T21:25:46.182Z,96.32
2023-04-18T21:28:08.074Z,97.64
2023-04-18T21:30:29.668Z,98.61
2023-04-18T21:32:51.581Z,99.54
2023-04-18T21:35:13.378Z,99.27
2023-04-18T21:37:34.900Z,99.79
2023-04-18T21:39:56.381Z,99.01
2023-04-18T21:42:17.810Z,98.52
2023-04-18T21:44:39.246Z,99.45
2023-04-18T21:47:00.765Z,99.20
2023-04-18T21:49:22.322Z,100.00
2023-04-18T21:51:44.834Z,98.58
2023-04-18T21:54:07.717Z,98.84
2023-04-18T21:56:29.171Z,98.58
2023-04-18T21:58:50.639Z,98.63
2023-04-18T22:01:12.453Z,97.57
2023-04-18T22:03:34.575Z,98.21
2023-04-18T22:05:56.664Z,98.48
2023-04-18T22:08:19.226Z,98.24
2023-04-18T22:10:40.884Z,97.26
2023-04-18T22:13:05.446Z,98.08
2023-04-18T22:15:27.216Z,97.55
2023-04-18T22:17:50.361Z,97.59
2023-04-18T22:20:12.984Z,98.53
2023-04-18T22:22:34.435Z,98.33
2023-04-18T22:24:55.883Z,96.72
2023-04-18T22:27:17.318Z,96.38
2023-04-18T22:29:38.758Z,96.49
2023-04-18T22:32:00.208Z,98.17
2023-04-18T22:34:21.666Z,98.71
2023-04-18T22:36:45.458Z,97.54
2023-04-18T22:39:07.397Z,97.96
2023-04-18T22:41:28.842Z,97.54
2023-04-18T22:43:50.464Z,96.59
2023-04-18T22:46:11.958Z,96.40
2023-04-18T22:48:35.246Z,95.48
2023-04-18T22:50:56.760Z,95.36
2023-04-18T22:53:18.328Z,94.75
2023-04-18T22:55:43.937Z,94.24
2023-04-18T22:58:05.448Z,94.13
2023-04-18T23:00:26.900Z,94.12
2023-04-18T23:02:48.446Z,93.28
2023-04-18T23:05:10.905Z,94.12
2023-04-18T23:07:32.376Z,95.11
2023-04-18T23:09:53.943Z,94.17
2023-04-18T23:12:15.655Z,94.08
2023-04-18T23:14:37.237Z,95.76
2023-04-18T23:16:58.675Z,96.07
2023-04-18T23:19:20.188Z,97.10
2023-04-18T23:21:42.126Z,96.62
2023-04-18T23:24:03.720Z,98.13
2023-04-18T23:26:25.494Z,98.18
2023-04-18T23:28:47.011Z,97.83
2023-04-18T23:31:08.862Z,97.48
2023-04-18T23:33:30.357Z,97.92
2023-04-18T23:35:51.785Z,98.66
2023-04-18T23:38:13.330Z,98.04
2023-04-18T23:40:35.477Z,99.24
2023-04-18T23:42:57.172Z,99.25
2023-04-18T23:45:18.688Z,99.25
2023-04-18T23:47:40.307Z,100.00
2023-04-18T23:50:02.064Z,100.00
2023-04-18T23:52:23.592Z,100.00
2023-04-18T23:54:45.163Z,99.74
2023-04-18T23:57:06.603Z,100.00
2023-04-18T23:59:28.055Z,99.43
